A Sesimbrense — CULL2 — position and weather

sailwx.info

Track history (hours):
 
Tides and Currents Weather Stations Pressure Air Temp Water Temp Dewpoint Dewpoint Depression Visibility Wind Speed Wind Dir Waves Ship Positions

A Sesimbrense

Last reported at 2018-Jul-21 09:39 UTC. Time now 2018-Jul-22 21:53 UTC.
Position N 38°26' W 009°07'.

Length 16 m.

Type: Fishing. MMSI: 263410370.

Date/timePositionNaut miles runAvg speedWind from/ knotsBaromVisibWave heightAir tempDewpointWater temp
2018-Jul-21 09:39N 38°26' W 009°07'0 0.0
2018-Jul-21 09:30N 38°26' W 009°07'0 0.0
2018-Jul-21 09:00N 38°26' W 009°07'0 0.0
2018-Jul-21 08:30N 38°26' W 009°07'0 0.0
2018-Jul-20 17:48N 38°26' W 009°07'0 0.0
2018-Jul-20 13:12N 38°26' W 009°07'0 0.0
2018-Jul-20 13:00N 38°26' W 009°07'0 0.2
2018-Jul-20 12:30N 38°26' W 009°07'0 0.0
2018-Jul-20 12:00N 38°26' W 009°07'0 0.0
2018-Jul-20 11:30N 38°26' W 009°07'0 0.0
2018-Jul-20 11:00N 38°26' W 009°07'0 0.0
2018-Jul-20 10:29N 38°26' W 009°07'0 0.0
2018-Jul-20 10:00N 38°26' W 009°07'0 0.6
2018-Jul-20 09:30N 38°26' W 009°06'4 8.1
2018-Jul-20 08:59N 38°25' W 009°11'3 6.5
2018-Jul-20 08:30N 38°27' W 009°14'4 8.4
2018-Jul-20 08:00N 38°31' W 009°13'1 1.9
2018-Jul-20 07:29N 38°32' W 009°13'0 0.5
2018-Jul-20 07:00N 38°32' W 009°14'0 0.5
2018-Jul-20 06:28N 38°32' W 009°14'0 0.5
2018-Jul-20 06:00N 38°32' W 009°14'0 0.2
2018-Jul-20 05:29N 38°33' W 009°14'0 0.1
2018-Jul-20 04:58N 38°33' W 009°14'0 0.2
2018-Jul-20 04:30N 38°33' W 009°14'0 0.2
2018-Jul-20 03:58N 38°33' W 009°14'1 1.1
2018-Jul-20 03:29N 38°32' W 009°13'0 0.0
2018-Jul-20 03:00N 38°32' W 009°13'0 0.0
2018-Jul-20 02:30N 38°32' W 009°13'0 0.0
2018-Jul-20 01:59N 38°32' W 009°13'0 0.0
2018-Jul-20 01:30N 38°32' W 009°13'0 0.0
2018-Jul-20 00:59N 38°32' W 009°13'0 0.1
2018-Jul-20 00:30N 38°33' W 009°13'0 0.1
2018-Jul-19 23:58N 38°33' W 009°13'0 0.3
2018-Jul-19 23:30N 38°33' W 009°13'0 0.8
2018-Jul-19 22:58N 38°32' W 009°14'2 4.1
2018-Jul-19 22:28N 38°30' W 009°13'5 7.4
2018-Jul-19 21:49N 38°26' W 009°14'2 6.6
2018-Jul-19 21:30N 38°24' W 009°12'4 7.8
2018-Jul-19 21:00N 38°26' W 009°07'1 1.1
2018-Jul-19 20:30N 38°26' W 009°07'0 0.0
2018-Jul-19 11:40N 38°26' W 009°07'0 0.0
2018-Jul-19 11:30N 38°26' W 009°07'0 0.0
2018-Jul-19 11:00N 38°26' W 009°07'0 0.2
2018-Jul-19 10:30N 38°26' W 009°07'0 0.2
2018-Jul-19 09:58N 38°26' W 009°07'0 0.0
2018-Jul-19 09:30N 38°26' W 009°07'0 0.3
2018-Jul-19 09:00N 38°26' W 009°07'3 5.7
2018-Jul-19 08:29N 38°25' W 009°10'3 6.3
2018-Jul-19 08:00N 38°26' W 009°14'4 8.5
2018-Jul-19 07:30N 38°30' W 009°13'3 5.0
2018-Jul-19 06:58N 38°33' W 009°13'0 0.6
2018-Jul-19 06:30N 38°33' W 009°13'0 0.6
2018-Jul-19 05:59N 38°33' W 009°14'0 0.5
2018-Jul-19 05:29N 38°33' W 009°14'0 0.3
2018-Jul-19 04:57N 38°33' W 009°14'0 0.1
2018-Jul-19 04:30N 38°33' W 009°14'0 0.1
2018-Jul-19 03:59N 38°33' W 009°14'0 0.9
2018-Jul-19 03:30N 38°33' W 009°14'0 0.1
2018-Jul-19 03:00N 38°33' W 009°14'0 0.5
2018-Jul-19 02:29N 38°33' W 009°14'4 7.8
2018-Jul-19 02:00N 38°29' W 009°14'4 7.6
2018-Jul-19 01:27N 38°25' W 009°13'4 7.3
2018-Jul-19 00:51N 38°25' W 009°08'1 3.9
2018-Jul-19 00:30N 38°26' W 009°07'0 0.0
2018-Jul-18 23:59N 38°26' W 009°07'0 0.0
2018-Jul-18 21:09N 38°26' W 009°07'0 0.0
2018-Jul-18 21:00N 38°26' W 009°07'0 0.0
2018-Jul-18 11:35N 38°26' W 009°07'0 0.0
2018-Jul-18 11:30N 38°26' W 009°07'0 0.1
2018-Jul-18 10:30N 38°26' W 009°07'0 0.0
2018-Jul-18 09:59N 38°26' W 009°07'0 0.0
2018-Jul-18 09:30N 38°26' W 009°07'2 4.0
2018-Jul-18 09:00N 38°25' W 009°09'4 7.5
2018-Jul-18 08:31N 38°25' W 009°14'5 7.8
2018-Jul-18 07:54N 38°30' W 009°14'3 8.1
2018-Jul-18 07:30N 38°33' W 009°13'2 3.3
2018-Jul-18 07:00N 38°34' W 009°13'0 0.5
2018-Jul-18 06:29N 38°34' W 009°14'0 0.3
2018-Jul-18 06:00N 38°35' W 009°14'0 0.3
2018-Jul-18 05:30N 38°34' W 009°14'0 0.1
2018-Jul-18 05:00N 38°34' W 009°14'0 0.1
2018-Jul-18 04:29N 38°34' W 009°14'0 0.4
2018-Jul-18 04:00N 38°34' W 009°14'0 0.2
2018-Jul-18 03:30N 38°34' W 009°14'1 2.9
2018-Jul-18 02:59N 38°33' W 009°14'1 2.1
2018-Jul-18 02:29N 38°34' W 009°14'0 0.0
2018-Jul-18 01:57N 38°34' W 009°14'0 0.0
2018-Jul-18 01:30N 38°34' W 009°14'0 0.1
2018-Jul-18 01:00N 38°34' W 009°14'0 0.4
2018-Jul-18 00:29N 38°34' W 009°14'0 0.6
2018-Jul-18 00:00N 38°34' W 009°15'2 3.6
2018-Jul-17 23:30N 38°36' W 009°15'3 6.4
2018-Jul-17 22:59N 38°33' W 009°13'1 1.8
2018-Jul-17 22:30N 38°33' W 009°14'3 5.6
2018-Jul-17 21:58N 38°30' W 009°13'4 7.3
2018-Jul-17 21:30N 38°26' W 009°14'3 5.3
2018-Jul-17 20:56N 38°25' W 009°10'3 8.1
2018-Jul-17 20:30N 38°26' W 009°06'0 0.7
2018-Jul-17 20:00N 38°26' W 009°06'0 1.0
2018-Jul-17 19:30N 38°26' W 009°07'0 0.0
2018-Jul-17 11:43N 38°26' W 009°07'0 0.0
2018-Jul-17 11:30N 38°26' W 009°07'0 0.0
2018-Jul-17 11:00N 38°26' W 009°07'0 0.0
2018-Jul-17 10:29N 38°26' W 009°07'0 0.1
2018-Jul-17 10:00N 38°26' W 009°07'0 0.0
2018-Jul-17 09:26N 38°26' W 009°07'0 0.0
2018-Jul-17 09:00N 38°26' W 009°07'2 4.1
2018-Jul-17 08:29N 38°25' W 009°09'4 7.1
2018-Jul-17 07:58N 38°25' W 009°14'4 7.9
2018-Jul-17 07:29N 38°29' W 009°14'3 6.3
2018-Jul-17 06:59N 38°32' W 009°14'0 0.4
2018-Jul-17 06:30N 38°32' W 009°14'0 0.4
2018-Jul-17 06:00N 38°32' W 009°14'0 0.4
2018-Jul-17 05:29N 38°33' W 009°14'0 0.1
2018-Jul-17 05:00N 38°33' W 009°14'0 0.1
2018-Jul-17 04:29N 38°33' W 009°14'0 0.3
2018-Jul-17 04:00N 38°33' W 009°14'0 0.6
2018-Jul-17 03:29N 38°33' W 009°13'0 1.0
2018-Jul-17 02:59N 38°33' W 009°14'4 0.9
2018-Jul-16 23:07N 38°36' W 009°15'1 8.0
2018-Jul-16 23:00N 38°37' W 009°16'2 3.2
2018-Jul-16 22:30N 38°36' W 009°14'3 6.4
2018-Jul-16 22:00N 38°33' W 009°14'3 6.2
2018-Jul-16 21:29N 38°30' W 009°13'4 7.3
2018-Jul-16 21:00N 38°26' W 009°14'3 6.1
2018-Jul-16 20:30N 38°24' W 009°11'4 7.5
2018-Jul-16 20:00N 38°26' W 009°07'0 0.0
2018-Jul-16 12:23N 38°26' W 009°07'0 0.3
2018-Jul-16 12:00N 38°26' W 009°07'0 0.0
2018-Jul-16 11:30N 38°26' W 009°07'0 0.0
2018-Jul-16 11:00N 38°26' W 009°07'0 0.0
2018-Jul-16 10:31N 38°26' W 009°07'0 0.0
2018-Jul-16 09:59N 38°26' W 009°07'0 0.0
2018-Jul-16 09:30N 38°26' W 009°07'4 5.9
2018-Jul-16 08:52N 38°25' W 009°11'2 6.5
2018-Jul-16 08:30N 38°25' W 009°14'5 8.1
2018-Jul-16 07:57N 38°30' W 009°14'2 5.0
2018-Jul-16 07:28N 38°32' W 009°13'0 0.5
2018-Jul-16 07:00N 38°33' W 009°14'0 0.4
2018-Jul-16 06:30N 38°33' W 009°14'0 0.3
2018-Jul-16 05:59N 38°33' W 009°14'0 0.2
2018-Jul-16 05:30N 38°33' W 009°14'0 0.1
2018-Jul-16 05:00N 38°33' W 009°14'0 0.0
2018-Jul-16 04:29N 38°33' W 009°14'5 2.0
2018-Jul-16 02:00N 38°37' W 009°16'4 7.6
2018-Jul-16 01:26N 38°34' W 009°14'2 4.2
2018-Jul-16 01:00N 38°32' W 009°15'8 4.0
2018-Jul-15 22:55N 38°26' W 009°08'1 2.8
2018-Jul-15 22:30N 38°26' W 009°07'  
2018-Jul-13 16:07N 38°26' W 009°07'0 0.0
2018-Jul-13 16:00N 38°26' W 009°07'0 0.0
2018-Jul-13 15:28N 38°26' W 009°07'0 0.0
2018-Jul-13 15:00N 38°26' W 009°07'0 0.0
2018-Jul-13 14:30N 38°26' W 009°07'0 0.0
2018-Jul-13 11:26N 38°26' W 009°07'0 0.2
2018-Jul-13 11:00N 38°26' W 009°07'0 0.3
2018-Jul-13 10:31N 38°26' W 009°07'0 0.0
2018-Jul-13 09:56N 38°26' W 009°07'0 0.0
2018-Jul-13 09:29N 38°26' W 009°07'4 6.7
2018-Jul-13 08:53N 38°25' W 009°11'2 6.0
2018-Jul-13 08:30N 38°26' W 009°14'4 8.1
2018-Jul-13 07:59N 38°30' W 009°14'4 7.3
2018-Jul-13 07:30N 38°34' W 009°14'1 2.3
2018-Jul-13 07:00N 38°35' W 009°14'0 0.3
2018-Jul-13 06:30N 38°35' W 009°15'0 0.3
2018-Jul-13 06:00N 38°35' W 009°15'0 0.0
2018-Jul-13 05:30N 38°35' W 009°15'0 0.1
2018-Jul-13 04:59N 38°35' W 009°15'3 5.7
2018-Jul-13 04:31N 38°32' W 009°14'8 0.4
2018-Jul-12 07:47N 38°26' W 009°07'1 3.5
2018-Jul-12 07:30N 38°26' W 009°07'4 7.4
2018-Jul-12 06:59N 38°24' W 009°12'4 6.9
2018-Jul-12 06:23N 38°28' W 009°14'1 2.5
2018-Jul-12 05:58N 38°29' W 009°13'3 6.7
2018-Jul-12 05:27N 38°32' W 009°14'3 7.9
2018-Jul-12 05:00N 38°36' W 009°15'3 6.5
2018-Jul-12 04:30N 38°32' W 009°14'0 0.4
2018-Jul-12 03:59N 38°33' W 009°14'1 1.5
2018-Jul-12 03:29N 38°33' W 009°14'0 0.1
2018-Jul-12 03:00N 38°33' W 009°14'0 0.0
2018-Jul-12 02:28N 38°33' W 009°14'0 0.0
2018-Jul-12 01:56N 38°33' W 009°14'0 0.0
2018-Jul-12 01:29N 38°33' W 009°14'0 0.3
2018-Jul-12 00:58N 38°34' W 009°14'0 0.4
2018-Jul-12 00:29N 38°34' W 009°14'0 0.7
2018-Jul-11 23:59N 38°34' W 009°15'2 4.9
2018-Jul-11 23:29N 38°32' W 009°13'4 7.6
2018-Jul-11 23:00N 38°28' W 009°13'4 7.1
2018-Jul-11 22:30N 38°25' W 009°13'4 7.4
2018-Jul-11 21:59N 38°25' W 009°09'2 4.3
2018-Jul-11 21:30N 38°26' W 009°07'0 0.0
2018-Jul-11 21:00N 38°26' W 009°07'0 0.3
2018-Jul-11 20:29N 38°26' W 009°07'0 0.0
2018-Jul-11 18:01N 38°26' W 009°07'0 0.0
2018-Jul-11 17:59N 38°26' W 009°07'0 0.0
2018-Jul-11 17:29N 38°26' W 009°07'0 0.0
2018-Jul-11 12:39N 38°26' W 009°07'0 0.0
2018-Jul-11 12:30N 38°26' W 009°07'0 0.3
2018-Jul-11 11:57N 38°26' W 009°07'0 0.0
2018-Jul-11 11:31N 38°26' W 009°07'0 0.0
2018-Jul-11 11:01N 38°26' W 009°07'0 0.0
2018-Jul-11 10:30N 38°26' W 009°07'0 0.0
2018-Jul-11 10:01N 38°26' W 009°07'  
Track history (hours):
 
Tides and Currents Weather Stations Pressure Air Temp Water Temp Dewpoint Dewpoint Depression Visibility Wind Speed Wind Dir Waves Ship Positions

A Sesimbrense

Last reported at 2018-Jul-21 09:39 UTC. Time now 2018-Jul-22 21:53 UTC.
Position N 38°26' W 009°07'.

Length 16 m.

Type: Fishing. MMSI: 263410370.

Date/timePositionNaut miles runAvg speedWind from/ knotsBaromVisibWave heightAir tempDewpointWater temp
2018-Jul-21 09:39N 38°26' W 009°07'0 0.0
2018-Jul-21 09:30N 38°26' W 009°07'0 0.0
2018-Jul-21 09:00N 38°26' W 009°07'0 0.0
2018-Jul-21 08:30N 38°26' W 009°07'0 0.0
2018-Jul-20 17:48N 38°26' W 009°07'0 0.0
2018-Jul-20 13:12N 38°26' W 009°07'0 0.0
2018-Jul-20 13:00N 38°26' W 009°07'0 0.2
2018-Jul-20 12:30N 38°26' W 009°07'0 0.0
2018-Jul-20 12:00N 38°26' W 009°07'0 0.0
2018-Jul-20 11:30N 38°26' W 009°07'0 0.0
2018-Jul-20 11:00N 38°26' W 009°07'0 0.0
2018-Jul-20 10:29N 38°26' W 009°07'0 0.0
2018-Jul-20 10:00N 38°26' W 009°07'0 0.6
2018-Jul-20 09:30N 38°26' W 009°06'4 8.1
2018-Jul-20 08:59N 38°25' W 009°11'3 6.5
2018-Jul-20 08:30N 38°27' W 009°14'4 8.4
2018-Jul-20 08:00N 38°31' W 009°13'1 1.9
2018-Jul-20 07:29N 38°32' W 009°13'0 0.5
2018-Jul-20 07:00N 38°32' W 009°14'0 0.5
2018-Jul-20 06:28N 38°32' W 009°14'0 0.5
2018-Jul-20 06:00N 38°32' W 009°14'0 0.2
2018-Jul-20 05:29N 38°33' W 009°14'0 0.1
2018-Jul-20 04:58N 38°33' W 009°14'0 0.2
2018-Jul-20 04:30N 38°33' W 009°14'0 0.2
2018-Jul-20 03:58N 38°33' W 009°14'1 1.1
2018-Jul-20 03:29N 38°32' W 009°13'0 0.0
2018-Jul-20 03:00N 38°32' W 009°13'0 0.0
2018-Jul-20 02:30N 38°32' W 009°13'0 0.0
2018-Jul-20 01:59N 38°32' W 009°13'0 0.0
2018-Jul-20 01:30N 38°32' W 009°13'0 0.0
2018-Jul-20 00:59N 38°32' W 009°13'0 0.1
2018-Jul-20 00:30N 38°33' W 009°13'0 0.1
2018-Jul-19 23:58N 38°33' W 009°13'0 0.3
2018-Jul-19 23:30N 38°33' W 009°13'0 0.8
2018-Jul-19 22:58N 38°32' W 009°14'2 4.1
2018-Jul-19 22:28N 38°30' W 009°13'5 7.4
2018-Jul-19 21:49N 38°26' W 009°14'2 6.6
2018-Jul-19 21:30N 38°24' W 009°12'4 7.8
2018-Jul-19 21:00N 38°26' W 009°07'1 1.1
2018-Jul-19 20:30N 38°26' W 009°07'0 0.0
2018-Jul-19 11:40N 38°26' W 009°07'0 0.0
2018-Jul-19 11:30N 38°26' W 009°07'0 0.0
2018-Jul-19 11:00N 38°26' W 009°07'0 0.2
2018-Jul-19 10:30N 38°26' W 009°07'0 0.2
2018-Jul-19 09:58N 38°26' W 009°07'0 0.0
2018-Jul-19 09:30N 38°26' W 009°07'0 0.3
2018-Jul-19 09:00N 38°26' W 009°07'3 5.7
2018-Jul-19 08:29N 38°25' W 009°10'3 6.3
2018-Jul-19 08:00N 38°26' W 009°14'4 8.5
2018-Jul-19 07:30N 38°30' W 009°13'3 5.0
2018-Jul-19 06:58N 38°33' W 009°13'0 0.6
2018-Jul-19 06:30N 38°33' W 009°13'0 0.6
2018-Jul-19 05:59N 38°33' W 009°14'0 0.5
2018-Jul-19 05:29N 38°33' W 009°14'0 0.3
2018-Jul-19 04:57N 38°33' W 009°14'0 0.1
2018-Jul-19 04:30N 38°33' W 009°14'0 0.1
2018-Jul-19 03:59N 38°33' W 009°14'0 0.9
2018-Jul-19 03:30N 38°33' W 009°14'0 0.1
2018-Jul-19 03:00N 38°33' W 009°14'0 0.5
2018-Jul-19 02:29N 38°33' W 009°14'4 7.8
2018-Jul-19 02:00N 38°29' W 009°14'4 7.6
2018-Jul-19 01:27N 38°25' W 009°13'4 7.3
2018-Jul-19 00:51N 38°25' W 009°08'1 3.9
2018-Jul-19 00:30N 38°26' W 009°07'0 0.0
2018-Jul-18 23:59N 38°26' W 009°07'0 0.0
2018-Jul-18 21:09N 38°26' W 009°07'0 0.0
2018-Jul-18 21:00N 38°26' W 009°07'0 0.0
2018-Jul-18 11:35N 38°26' W 009°07'0 0.0
2018-Jul-18 11:30N 38°26' W 009°07'0 0.1
2018-Jul-18 10:30N 38°26' W 009°07'0 0.0
2018-Jul-18 09:59N 38°26' W 009°07'0 0.0
2018-Jul-18 09:30N 38°26' W 009°07'2 4.0
2018-Jul-18 09:00N 38°25' W 009°09'4 7.5
2018-Jul-18 08:31N 38°25' W 009°14'5 7.8
2018-Jul-18 07:54N 38°30' W 009°14'3 8.1
2018-Jul-18 07:30N 38°33' W 009°13'2 3.3
2018-Jul-18 07:00N 38°34' W 009°13'0 0.5
2018-Jul-18 06:29N 38°34' W 009°14'0 0.3
2018-Jul-18 06:00N 38°35' W 009°14'0 0.3
2018-Jul-18 05:30N 38°34' W 009°14'0 0.1
2018-Jul-18 05:00N 38°34' W 009°14'0 0.1
2018-Jul-18 04:29N 38°34' W 009°14'0 0.4
2018-Jul-18 04:00N 38°34' W 009°14'0 0.2
2018-Jul-18 03:30N 38°34' W 009°14'1 2.9
2018-Jul-18 02:59N 38°33' W 009°14'1 2.1
2018-Jul-18 02:29N 38°34' W 009°14'0 0.0
2018-Jul-18 01:57N 38°34' W 009°14'0 0.0
2018-Jul-18 01:30N 38°34' W 009°14'0 0.1
2018-Jul-18 01:00N 38°34' W 009°14'0 0.4
2018-Jul-18 00:29N 38°34' W 009°14'0 0.6
2018-Jul-18 00:00N 38°34' W 009°15'2 3.6
2018-Jul-17 23:30N 38°36' W 009°15'3 6.4
2018-Jul-17 22:59N 38°33' W 009°13'1 1.8
2018-Jul-17 22:30N 38°33' W 009°14'3 5.6
2018-Jul-17 21:58N 38°30' W 009°13'4 7.3
2018-Jul-17 21:30N 38°26' W 009°14'3 5.3
2018-Jul-17 20:56N 38°25' W 009°10'3 8.1
2018-Jul-17 20:30N 38°26' W 009°06'0 0.7
2018-Jul-17 20:00N 38°26' W 009°06'0 1.0
2018-Jul-17 19:30N 38°26' W 009°07'0 0.0
2018-Jul-17 11:43N 38°26' W 009°07'0 0.0
2018-Jul-17 11:30N 38°26' W 009°07'0 0.0
2018-Jul-17 11:00N 38°26' W 009°07'0 0.0
2018-Jul-17 10:29N 38°26' W 009°07'0 0.1
2018-Jul-17 10:00N 38°26' W 009°07'0 0.0
2018-Jul-17 09:26N 38°26' W 009°07'0 0.0
2018-Jul-17 09:00N 38°26' W 009°07'2 4.1
2018-Jul-17 08:29N 38°25' W 009°09'4 7.1
2018-Jul-17 07:58N 38°25' W 009°14'4 7.9
2018-Jul-17 07:29N 38°29' W 009°14'3 6.3
2018-Jul-17 06:59N 38°32' W 009°14'0 0.4
2018-Jul-17 06:30N 38°32' W 009°14'0 0.4
2018-Jul-17 06:00N 38°32' W 009°14'0 0.4
2018-Jul-17 05:29N 38°33' W 009°14'0 0.1
2018-Jul-17 05:00N 38°33' W 009°14'0 0.1
2018-Jul-17 04:29N 38°33' W 009°14'0 0.3
2018-Jul-17 04:00N 38°33' W 009°14'0 0.6
2018-Jul-17 03:29N 38°33' W 009°13'0 1.0
2018-Jul-17 02:59N 38°33' W 009°14'4 0.9
2018-Jul-16 23:07N 38°36' W 009°15'1 8.0
2018-Jul-16 23:00N 38°37' W 009°16'2 3.2
2018-Jul-16 22:30N 38°36' W 009°14'3 6.4
2018-Jul-16 22:00N 38°33' W 009°14'3 6.2
2018-Jul-16 21:29N 38°30' W 009°13'4 7.3
2018-Jul-16 21:00N 38°26' W 009°14'3 6.1
2018-Jul-16 20:30N 38°24' W 009°11'4 7.5
2018-Jul-16 20:00N 38°26' W 009°07'0 0.0
2018-Jul-16 12:23N 38°26' W 009°07'0 0.3
2018-Jul-16 12:00N 38°26' W 009°07'0 0.0
2018-Jul-16 11:30N 38°26' W 009°07'0 0.0
2018-Jul-16 11:00N 38°26' W 009°07'0 0.0
2018-Jul-16 10:31N 38°26' W 009°07'0 0.0
2018-Jul-16 09:59N 38°26' W 009°07'0 0.0
2018-Jul-16 09:30N 38°26' W 009°07'4 5.9
2018-Jul-16 08:52N 38°25' W 009°11'2 6.5
2018-Jul-16 08:30N 38°25' W 009°14'5 8.1
2018-Jul-16 07:57N 38°30' W 009°14'2 5.0
2018-Jul-16 07:28N 38°32' W 009°13'0 0.5
2018-Jul-16 07:00N 38°33' W 009°14'0 0.4
2018-Jul-16 06:30N 38°33' W 009°14'0 0.3
2018-Jul-16 05:59N 38°33' W 009°14'0 0.2
2018-Jul-16 05:30N 38°33' W 009°14'0 0.1
2018-Jul-16 05:00N 38°33' W 009°14'0 0.0
2018-Jul-16 04:29N 38°33' W 009°14'5 2.0
2018-Jul-16 02:00N 38°37' W 009°16'4 7.6
2018-Jul-16 01:26N 38°34' W 009°14'2 4.2
2018-Jul-16 01:00N 38°32' W 009°15'8 4.0
2018-Jul-15 22:55N 38°26' W 009°08'1 2.8
2018-Jul-15 22:30N 38°26' W 009°07'  
2018-Jul-13 16:07N 38°26' W 009°07'0 0.0
2018-Jul-13 16:00N 38°26' W 009°07'0 0.0
2018-Jul-13 15:28N 38°26' W 009°07'0 0.0
2018-Jul-13 15:00N 38°26' W 009°07'0 0.0
2018-Jul-13 14:30N 38°26' W 009°07'0 0.0
2018-Jul-13 11:26N 38°26' W 009°07'0 0.2
2018-Jul-13 11:00N 38°26' W 009°07'0 0.3
2018-Jul-13 10:31N 38°26' W 009°07'0 0.0
2018-Jul-13 09:56N 38°26' W 009°07'0 0.0
2018-Jul-13 09:29N 38°26' W 009°07'4 6.7
2018-Jul-13 08:53N 38°25' W 009°11'2 6.0
2018-Jul-13 08:30N 38°26' W 009°14'4 8.1
2018-Jul-13 07:59N 38°30' W 009°14'4 7.3
2018-Jul-13 07:30N 38°34' W 009°14'1 2.3
2018-Jul-13 07:00N 38°35' W 009°14'0 0.3
2018-Jul-13 06:30N 38°35' W 009°15'0 0.3
2018-Jul-13 06:00N 38°35' W 009°15'0 0.0
2018-Jul-13 05:30N 38°35' W 009°15'0 0.1
2018-Jul-13 04:59N 38°35' W 009°15'3 5.7
2018-Jul-13 04:31N 38°32' W 009°14'8 0.4
2018-Jul-12 07:47N 38°26' W 009°07'1 3.5
2018-Jul-12 07:30N 38°26' W 009°07'4 7.4
2018-Jul-12 06:59N 38°24' W 009°12'4 6.9
2018-Jul-12 06:23N 38°28' W 009°14'1 2.5
2018-Jul-12 05:58N 38°29' W 009°13'3 6.7
2018-Jul-12 05:27N 38°32' W 009°14'3 7.9
2018-Jul-12 05:00N 38°36' W 009°15'3 6.5
2018-Jul-12 04:30N 38°32' W 009°14'0 0.4
2018-Jul-12 03:59N 38°33' W 009°14'1 1.5
2018-Jul-12 03:29N 38°33' W 009°14'0 0.1
2018-Jul-12 03:00N 38°33' W 009°14'0 0.0
2018-Jul-12 02:28N 38°33' W 009°14'0 0.0
2018-Jul-12 01:56N 38°33' W 009°14'0 0.0
2018-Jul-12 01:29N 38°33' W 009°14'0 0.3
2018-Jul-12 00:58N 38°34' W 009°14'0 0.4
2018-Jul-12 00:29N 38°34' W 009°14'0 0.7
2018-Jul-11 23:59N 38°34' W 009°15'2 4.9
2018-Jul-11 23:29N 38°32' W 009°13'4 7.6
2018-Jul-11 23:00N 38°28' W 009°13'4 7.1
2018-Jul-11 22:30N 38°25' W 009°13'4 7.4
2018-Jul-11 21:59N 38°25' W 009°09'2 4.3
2018-Jul-11 21:30N 38°26' W 009°07'0 0.0
2018-Jul-11 21:00N 38°26' W 009°07'0 0.3
2018-Jul-11 20:29N 38°26' W 009°07'0 0.0
2018-Jul-11 18:01N 38°26' W 009°07'0 0.0
2018-Jul-11 17:59N 38°26' W 009°07'0 0.0
2018-Jul-11 17:29N 38°26' W 009°07'0 0.0
2018-Jul-11 12:39N 38°26' W 009°07'0 0.0
2018-Jul-11 12:30N 38°26' W 009°07'0 0.3
2018-Jul-11 11:57N 38°26' W 009°07'0 0.0
2018-Jul-11 11:31N 38°26' W 009°07'0 0.0
2018-Jul-11 11:01N 38°26' W 009°07'0 0.0
2018-Jul-11 10:30N 38°26' W 009°07'0 0.0
2018-Jul-11 10:01N 38°26' W 009°07'  

Dump ship's entire track history